createdAt,value
2022-08-26T00:02:11.829Z,90.86
2022-08-26T00:04:40.290Z,90.92
2022-08-26T00:07:08.292Z,91.37
2022-08-26T00:09:37.236Z,91.36
2022-08-26T00:12:07.437Z,91.90
2022-08-26T00:14:36.619Z,92.22
2022-08-26T00:17:04.648Z,92.69
2022-08-26T00:19:32.865Z,93.15
2022-08-26T00:22:00.856Z,92.83
2022-08-26T00:24:28.436Z,92.90
2022-08-26T00:26:56.348Z,92.80
2022-08-26T00:29:23.913Z,92.83
2022-08-26T00:31:51.519Z,92.83
2022-08-26T00:34:19.698Z,93.23
2022-08-26T00:36:51.734Z,93.37
2022-08-26T00:39:21.109Z,93.55
2022-08-26T00:41:48.776Z,93.76
2022-08-26T00:44:17.049Z,93.65
2022-08-26T00:46:50.801Z,94.18
2022-08-26T00:49:29.499Z,94.61
2022-08-26T00:52:00.976Z,94.67
2022-08-26T00:54:32.660Z,94.75
2022-08-26T00:57:15.827Z,94.70
2022-08-26T00:59:56.828Z,95.14
2022-08-26T01:02:25.722Z,95.16
2022-08-26T01:04:58.827Z,95.78
2022-08-26T01:07:31.205Z,95.97
2022-08-26T01:10:07.528Z,96.01
2022-08-26T01:12:47.987Z,96.55
2022-08-26T01:15:51.882Z,96.33
2022-08-26T01:18:21.648Z,96.45
2022-08-26T01:21:07.014Z,96.63
2022-08-26T01:23:45.178Z,96.48
2022-08-26T01:26:50.340Z,96.00
2022-08-26T01:29:20.098Z,95.44
2022-08-26T01:31:55.494Z,95.35
2022-08-26T01:34:25.332Z,95.52
2022-08-26T01:37:19.786Z,95.10
2022-08-26T01:39:53.809Z,94.98
2022-08-26T01:42:24.814Z,95.73
2022-08-26T01:45:05.424Z,96.00
2022-08-26T01:47:36.641Z,96.47
2022-08-26T01:50:27.808Z,96.43
2022-08-26T01:53:01.739Z,96.40
2022-08-26T01:55:32.963Z,96.20
2022-08-26T01:58:10.445Z,95.98
2022-08-26T02:00:40.919Z,96.25
2022-08-26T02:03:18.414Z,96.46
2022-08-26T02:06:00.631Z,96.43
2022-08-26T02:08:37.565Z,96.58
2022-08-26T02:11:05.705Z,96.64
2022-08-26T02:13:40.290Z,96.51
2022-08-26T02:16:09.271Z,96.34
2022-08-26T02:18:40.261Z,96.07
2022-08-26T02:21:09.736Z,96.08
2022-08-26T02:23:38.737Z,96.40
2022-08-26T02:26:16.323Z,96.16
2022-08-26T02:29:02.648Z,96.68
2022-08-26T02:31:30.309Z,97.05
2022-08-26T02:34:21.695Z,96.44
2022-08-26T02:36:49.845Z,96.23
2022-08-26T02:39:22.316Z,96.60
2022-08-26T02:41:50.319Z,97.04
2022-08-26T02:44:18.820Z,97.20
2022-08-26T02:46:47.384Z,97.16
2022-08-26T02:49:17.218Z,96.60
2022-08-26T02:51:45.720Z,95.76
2022-08-26T02:54:14.035Z,96.18
2022-08-26T02:56:42.471Z,95.63
2022-08-26T02:59:12.647Z,95.25
2022-08-26T03:01:41.159Z,94.77
2022-08-26T03:04:12.524Z,94.40
2022-08-26T03:06:40.672Z,94.12
2022-08-26T03:09:09.802Z,94.22
2022-08-26T03:11:41.699Z,94.22
2022-08-26T03:14:09.215Z,94.33
2022-08-26T03:16:38.135Z,94.53
2022-08-26T03:19:09.637Z,94.94
2022-08-26T03:21:39.534Z,95.01
2022-08-26T03:24:10.732Z,95.43
2022-08-26T03:26:38.742Z,95.70
2022-08-26T03:29:25.508Z,95.47
2022-08-26T03:31:54.259Z,95.34
2022-08-26T03:34:22.643Z,94.99
2022-08-26T03:36:50.425Z,93.82
2022-08-26T03:39:18.305Z,94.01
2022-08-26T03:41:45.957Z,93.65
2022-08-26T03:44:14.639Z,92.70
2022-08-26T03:46:42.467Z,93.02
2022-08-26T03:49:11.491Z,92.99
2022-08-26T03:51:39.871Z,93.87
2022-08-26T03:54:10.761Z,94.07
2022-08-26T03:56:39.200Z,94.57
2022-08-26T03:59:08.099Z,94.33
2022-08-26T04:01:36.516Z,94.15
2022-08-26T04:04:04.597Z,93.85
2022-08-26T04:06:45.185Z,93.72
2022-08-26T04:09:20.323Z,93.21
2022-08-26T04:11:50.397Z,93.20
2022-08-26T04:14:22.501Z,93.16
2022-08-26T04:16:51.774Z,92.62
2022-08-26T04:19:21.422Z,92.61
2022-08-26T04:21:53.803Z,92.26
2022-08-26T04:24:25.692Z,92.88
2022-08-26T04:26:53.886Z,93.61
2022-08-26T04:29:25.395Z,93.60
2022-08-26T04:31:55.761Z,93.80
2022-08-26T04:34:27.179Z,94.42
2022-08-26T04:36:58.084Z,94.79
2022-08-26T04:39:27.779Z,94.64
2022-08-26T04:41:55.928Z,94.67
2022-08-26T04:44:29.522Z,94.38
2022-08-26T04:46:58.609Z,94.02
2022-08-26T04:49:27.663Z,94.48
2022-08-26T04:51:55.384Z,94.27
2022-08-26T04:54:23.527Z,93.80
2022-08-26T04:56:53.310Z,93.74
2022-08-26T04:59:20.922Z,93.20
2022-08-26T05:01:52.700Z,93.10
2022-08-26T05:04:21.319Z,93.15
2022-08-26T05:06:50.885Z,92.81
2022-08-26T05:09:20.194Z,93.13
2022-08-26T05:11:51.926Z,92.60
2022-08-26T05:14:23.268Z,92.25
2022-08-26T05:16:52.300Z,91.50
2022-08-26T05:19:19.937Z,90.69
2022-08-26T05:21:49.332Z,91.00
2022-08-26T05:24:18.106Z,90.91
2022-08-26T05:26:47.253Z,90.98
2022-08-26T05:29:16.808Z,90.01
2022-08-26T05:31:44.686Z,90.93
2022-08-26T05:34:12.665Z,90.74
2022-08-26T05:36:40.222Z,90.76
2022-08-26T05:39:10.449Z,90.80
2022-08-26T05:41:41.339Z,91.50
2022-08-26T05:44:13.937Z,91.60
2022-08-26T05:46:44.675Z,91.17
2022-08-26T05:49:15.891Z,90.03
2022-08-26T05:51:46.467Z,90.05
2022-08-26T05:54:21.344Z,89.10
2022-08-26T05:56:51.788Z,88.27
2022-08-26T05:59:23.925Z,88.94
2022-08-26T06:01:54.999Z,89.55
2022-08-26T06:04:27.508Z,89.40
2022-08-26T06:06:58.602Z,89.15
2022-08-26T06:09:27.395Z,88.58
2022-08-26T06:11:56.541Z,87.77
2022-08-26T06:14:25.961Z,86.71
2022-08-26T06:16:54.446Z,85.83
2022-08-26T06:19:22.584Z,84.73
2022-08-26T06:21:54.642Z,84.74
2022-08-26T06:25:01.545Z,85.13
2022-08-26T06:27:32.596Z,84.65
2022-08-26T06:30:00.826Z,84.47
2022-08-26T06:32:28.390Z,83.69
2022-08-26T06:34:56.953Z,82.88
2022-08-26T06:37:25.237Z,82.43
2022-08-26T06:39:52.929Z,82.18
2022-08-26T06:42:22.444Z,82.21
2022-08-26T06:44:51.312Z,82.09
2022-08-26T06:47:18.904Z,82.15
2022-08-26T06:49:46.456Z,82.39
2022-08-26T06:52:14.246Z,81.72
2022-08-26T06:54:47.696Z,80.45
2022-08-26T06:57:16.704Z,79.93
2022-08-26T06:59:44.416Z,80.16
2022-08-26T07:02:13.538Z,79.92
2022-08-26T07:04:42.129Z,79.96
2022-08-26T07:07:14.913Z,80.02
2022-08-26T07:09:42.843Z,79.67
2022-08-26T07:12:10.506Z,78.64
2022-08-26T07:14:38.629Z,78.65
2022-08-26T07:17:11.086Z,78.25
2022-08-26T07:19:41.379Z,78.60
2022-08-26T07:22:09.136Z,78.33
2022-08-26T07:24:42.887Z,77.58
2022-08-26T07:27:15.518Z,77.72
2022-08-26T07:29:44.818Z,77.21
2022-08-26T07:32:18.320Z,77.47
2022-08-26T07:34:45.984Z,76.17
2022-08-26T07:37:14.220Z,76.48
2022-08-26T07:39:43.227Z,76.83
2022-08-26T07:42:14.146Z,77.13
2022-08-26T07:44:43.138Z,77.61
2022-08-26T07:47:24.880Z,77.25
2022-08-26T07:49:57.419Z,76.61
2022-08-26T07:52:29.187Z,76.63
2022-08-26T07:55:00.611Z,77.09
2022-08-26T07:57:30.437Z,76.60
2022-08-26T07:59:59.520Z,75.34
2022-08-26T08:02:28.530Z,75.15
2022-08-26T08:04:59.714Z,74.69
2022-08-26T08:07:44.590Z,74.81
2022-08-26T08:10:22.514Z,74.43
2022-08-26T08:12:54.025Z,73.77
2022-08-26T08:15:26.623Z,74.53
2022-08-26T08:17:58.870Z,75.16
2022-08-26T08:20:29.575Z,74.38
2022-08-26T08:22:57.752Z,74.81
2022-08-26T08:25:25.425Z,74.83
2022-08-26T08:27:53.080Z,75.34
2022-08-26T08:30:23.309Z,74.24
2022-08-26T08:32:52.356Z,73.63
2022-08-26T08:35:22.471Z,74.40
2022-08-26T08:37:54.342Z,73.78
2022-08-26T08:40:26.130Z,73.37
2022-08-26T08:43:06.181Z,73.52
2022-08-26T08:45:39.909Z,73.75
2022-08-26T08:48:32.716Z,73.18
2022-08-26T08:51:27.887Z,71.16
2022-08-26T08:53:57.246Z,70.05
2022-08-26T08:56:53.094Z,70.13
2022-08-26T08:59:31.431Z,70.37
2022-08-26T09:02:25.681Z,71.24
2022-08-26T09:05:17.442Z,71.36
2022-08-26T09:08:23.608Z,70.93
2022-08-26T09:10:57.348Z,70.65
2022-08-26T09:13:27.347Z,71.31
2022-08-26T09:16:16.354Z,70.54
2022-08-26T09:19:19.064Z,71.18
2022-08-26T09:21:55.757Z,71.14
2022-08-26T09:24:28.405Z,70.90
2022-08-26T09:26:59.160Z,70.60
2022-08-26T09:29:40.977Z,70.63
2022-08-26T09:32:25.035Z,70.49
2022-08-26T09:35:01.129Z,70.81
2022-08-26T09:37:40.150Z,69.96
2022-08-26T09:40:27.003Z,70.85
2022-08-26T09:43:22.028Z,71.07
2022-08-26T09:45:59.052Z,69.66
2022-08-26T09:48:41.174Z,70.20
2022-08-26T09:51:24.280Z,70.38
2022-08-26T09:54:02.452Z,71.63
2022-08-26T09:56:38.496Z,71.16
2022-08-26T09:59:11.512Z,69.88
2022-08-26T10:01:45.011Z,69.98
2022-08-26T10:04:24.366Z,67.76
2022-08-26T10:07:00.631Z,67.09
2022-08-26T10:09:34.083Z,66.35
2022-08-26T10:12:10.801Z,66.64
2022-08-26T10:15:00.844Z,65.30
2022-08-26T10:18:11.542Z,64.83
2022-08-26T10:20:57.794Z,64.37
2022-08-26T10:23:31.007Z,63.42
2022-08-26T10:26:11.936Z,62.31
2022-08-26T10:28:54.141Z,62.49
2022-08-26T10:32:02.662Z,61.92
2022-08-26T10:34:34.837Z,56.81
2022-08-26T10:37:16.802Z,54.57
2022-08-26T10:39:57.269Z,57.21
2022-08-26T10:42:48.205Z,59.93
2022-08-26T10:45:22.161Z,58.57
2022-08-26T10:48:02.051Z,57.79
2022-08-26T10:50:43.980Z,55.50
2022-08-26T10:53:36.516Z,50.53
2022-08-26T10:57:00.133Z,47.77
2022-08-26T10:59:57.741Z,50.56
2022-08-26T11:02:48.233Z,48.98
2022-08-26T11:05:23.484Z,49.77
2022-08-26T11:08:34.257Z,47.12
2022-08-26T11:11:03.070Z,47.32
2022-08-26T11:14:01.427Z,47.29
2022-08-26T11:16:43.321Z,45.88
2022-08-26T11:20:01.036Z,45.22
2022-08-26T11:22:47.387Z,42.45
2022-08-26T11:25:29.986Z,40.34
2022-08-26T11:28:00.577Z,40.06
2022-08-26T11:30:42.759Z,39.80
2022-08-26T11:33:31.584Z,40.81
2022-08-26T11:35:59.297Z,41.86
2022-08-26T11:38:30.830Z,40.98
2022-08-26T11:41:17.555Z,41.21
2022-08-26T11:43:50.398Z,39.90
2022-08-26T11:46:27.435Z,40.36
2022-08-26T11:49:07.507Z,40.22
2022-08-26T11:51:40.199Z,39.23
2022-08-26T11:54:34.512Z,38.74
2022-08-26T11:57:11.603Z,38.18
2022-08-26T11:59:42.365Z,36.43
2022-08-26T12:02:17.926Z,35.09
2022-08-26T12:04:50.842Z,36.50
2022-08-26T12:07:27.680Z,36.39
2022-08-26T12:10:04.677Z,36.65
2022-08-26T12:12:38.644Z,36.69
2022-08-26T12:15:10.699Z,35.39
2022-08-26T12:17:42.255Z,36.11
2022-08-26T12:20:46.572Z,34.82
2022-08-26T12:23:49.952Z,36.45
2022-08-26T12:26:36.949Z,34.42
2022-08-26T12:29:26.665Z,34.76
2022-08-26T12:32:13.498Z,34.29
2022-08-26T12:34:47.373Z,33.72
2022-08-26T12:37:16.284Z,34.38
2022-08-26T12:39:47.993Z,33.81
2022-08-26T12:42:16.022Z,33.81
2022-08-26T12:44:53.312Z,33.21
2022-08-26T12:47:42.507Z,33.83
2022-08-26T12:50:30.960Z,34.14
2022-08-26T12:53:10.119Z,33.93
2022-08-26T12:55:52.806Z,33.84
2022-08-26T12:58:34.172Z,33.71
2022-08-26T13:01:05.194Z,35.00
2022-08-26T13:03:43.632Z,35.17
2022-08-26T13:06:20.736Z,35.90
2022-08-26T13:08:55.676Z,33.98
2022-08-26T13:11:46.855Z,34.83
2022-08-26T13:14:21.036Z,34.14
2022-08-26T13:16:53.185Z,31.37
2022-08-26T13:19:25.909Z,31.00
2022-08-26T13:21:57.441Z,30.22
2022-08-26T13:24:43.709Z,28.77
2022-08-26T13:27:15.345Z,27.67
2022-08-26T13:29:43.371Z,26.70
2022-08-26T13:32:11.007Z,25.85
2022-08-26T13:34:39.102Z,26.87
2022-08-26T13:37:07.155Z,26.05
2022-08-26T13:39:34.936Z,26.25
2022-08-26T13:42:09.076Z,27.28
2022-08-26T13:44:40.628Z,27.68
2022-08-26T13:47:09.123Z,26.53
2022-08-26T13:49:36.977Z,25.60
2022-08-26T13:52:04.801Z,25.02
2022-08-26T13:54:33.380Z,24.22
2022-08-26T13:57:00.869Z,24.63
2022-08-26T13:59:28.712Z,25.66
2022-08-26T14:01:58.488Z,25.66
2022-08-26T14:04:27.532Z,25.14
2022-08-26T14:06:55.697Z,22.86
2022-08-26T14:09:23.835Z,25.46
2022-08-26T14:11:54.889Z,24.18
2022-08-26T14:14:23.168Z,23.07
2022-08-26T14:16:59.315Z,21.71
2022-08-26T14:19:30.164Z,22.35
2022-08-26T14:22:00.797Z,21.78
2022-08-26T14:24:29.121Z,21.86
2022-08-26T14:26:56.759Z,21.50
2022-08-26T14:29:24.748Z,21.61
2022-08-26T14:31:52.782Z,21.33
2022-08-26T14:34:20.373Z,22.86
2022-08-26T14:36:48.369Z,22.82
2022-08-26T14:39:15.938Z,23.32
2022-08-26T14:41:54.983Z,23.55
2022-08-26T14:44:28.690Z,24.87
2022-08-26T14:46:57.368Z,25.24
2022-08-26T14:49:27.239Z,27.28
2022-08-26T14:51:55.541Z,27.95
2022-08-26T14:54:23.278Z,27.88
2022-08-26T14:57:03.556Z,27.80
2022-08-26T14:59:38.358Z,27.36
2022-08-26T15:02:09.059Z,25.58
2022-08-26T15:04:41.886Z,25.38
2022-08-26T15:07:09.766Z,25.26
2022-08-26T15:09:40.543Z,25.60
2022-08-26T15:12:08.308Z,23.74
2022-08-26T15:14:36.144Z,24.49
2022-08-26T15:17:04.696Z,25.35
2022-08-26T15:19:32.195Z,25.68
2022-08-26T15:22:00.309Z,26.17
2022-08-26T15:24:28.910Z,24.35
2022-08-26T15:26:56.583Z,22.39
2022-08-26T15:29:24.478Z,23.38
2022-08-26T15:31:55.263Z,23.96
2022-08-26T15:34:25.598Z,22.95
2022-08-26T15:36:53.404Z,22.96
2022-08-26T15:39:21.075Z,23.31
2022-08-26T15:41:49.023Z,22.40
2022-08-26T15:44:17.705Z,22.57
2022-08-26T15:46:45.673Z,23.07
2022-08-26T15:49:16.959Z,23.17
2022-08-26T15:51:50.351Z,23.62
2022-08-26T15:54:23.026Z,24.80
2022-08-26T15:56:53.038Z,24.97
2022-08-26T15:59:22.739Z,25.14
2022-08-26T16:01:51.763Z,24.19
2022-08-26T16:04:20.263Z,27.62
2022-08-26T16:06:51.504Z,28.28
2022-08-26T16:09:26.925Z,28.14
2022-08-26T16:11:58.802Z,28.18
2022-08-26T16:14:26.751Z,28.21
2022-08-26T16:16:54.168Z,28.40
2022-08-26T16:19:22.354Z,24.98
2022-08-26T16:21:51.511Z,27.40
2022-08-26T16:24:24.792Z,26.40
2022-08-26T16:26:55.464Z,28.73
2022-08-26T16:29:24.067Z,28.81
2022-08-26T16:31:53.359Z,29.02
2022-08-26T16:34:21.971Z,32.59
2022-08-26T16:36:49.704Z,30.95
2022-08-26T16:39:17.284Z,32.05
2022-08-26T16:41:45.147Z,32.44
2022-08-26T16:44:12.755Z,34.29
2022-08-26T16:46:41.173Z,35.82
2022-08-26T16:49:09.041Z,36.01
2022-08-26T16:51:37.842Z,36.65
2022-08-26T16:54:07.737Z,37.50
2022-08-26T16:56:36.902Z,37.81
2022-08-26T16:59:06.901Z,39.04
2022-08-26T17:01:34.520Z,37.74
2022-08-26T17:04:02.517Z,38.90
2022-08-26T17:06:30.186Z,41.41
2022-08-26T17:08:58.351Z,42.99
2022-08-26T17:11:26.045Z,43.75
2022-08-26T17:13:53.711Z,45.75
2022-08-26T17:16:26.393Z,46.84
2022-08-26T17:18:56.870Z,48.51
2022-08-26T17:21:26.960Z,49.94
2022-08-26T17:23:56.363Z,50.89
2022-08-26T17:26:24.072Z,46.35
2022-08-26T17:28:52.339Z,42.52
2022-08-26T17:31:21.033Z,49.28
2022-08-26T17:33:53.419Z,51.38
2022-08-26T17:36:27.456Z,52.62
2022-08-26T17:38:57.691Z,53.90
2022-08-26T17:41:26.902Z,53.29
2022-08-26T17:43:55.297Z,54.78
2022-08-26T17:46:24.239Z,54.62
2022-08-26T17:48:52.097Z,55.78
2022-08-26T17:51:19.927Z,55.87
2022-08-26T17:53:48.966Z,56.56
2022-08-26T17:56:21.173Z,56.66
2022-08-26T17:58:53.974Z,57.46
2022-08-26T18:01:26.125Z,57.78
2022-08-26T18:04:00.111Z,57.88
2022-08-26T18:06:30.595Z,57.24
2022-08-26T18:09:00.074Z,58.65
2022-08-26T18:11:29.346Z,59.00
2022-08-26T18:13:58.166Z,60.19
2022-08-26T18:16:26.801Z,60.39
2022-08-26T18:18:55.078Z,61.48
2022-08-26T18:21:27.661Z,60.79
2022-08-26T18:23:56.491Z,61.27
2022-08-26T18:26:35.428Z,61.15
2022-08-26T18:29:04.164Z,60.44
2022-08-26T18:31:33.034Z,60.43
2022-08-26T18:34:02.199Z,59.73
2022-08-26T18:36:42.494Z,59.44
2022-08-26T18:39:12.722Z,58.11
2022-08-26T18:41:48.734Z,58.29
2022-08-26T18:44:19.204Z,57.29
2022-08-26T18:46:47.553Z,57.71
2022-08-26T18:49:17.264Z,52.99
2022-08-26T18:51:46.780Z,56.43
2022-08-26T18:54:15.733Z,57.14
2022-08-26T18:56:43.945Z,59.84
2022-08-26T18:59:12.943Z,60.45
2022-08-26T19:01:42.401Z,59.90
2022-08-26T19:04:13.061Z,58.74
2022-08-26T19:06:47.336Z,59.59
2022-08-26T19:09:17.321Z,58.89
2022-08-26T19:11:46.401Z,59.89
2022-08-26T19:14:16.199Z,60.38
2022-08-26T19:16:47.358Z,59.86
2022-08-26T19:19:16.573Z,60.02
2022-08-26T19:21:44.289Z,60.98
2022-08-26T19:24:17.404Z,60.96
2022-08-26T19:26:51.406Z,61.97
2022-08-26T19:29:30.106Z,62.25
2022-08-26T19:31:58.754Z,63.51
2022-08-26T19:34:26.631Z,63.77
2022-08-26T19:36:54.653Z,64.10
2022-08-26T19:39:22.524Z,64.45
2022-08-26T19:41:50.161Z,63.69
2022-08-26T19:44:39.467Z,64.51
2022-08-26T19:47:09.793Z,62.11
2022-08-26T19:49:38.285Z,62.25
2022-08-26T19:52:06.438Z,62.41
2022-08-26T19:54:35.332Z,61.51
2022-08-26T19:57:03.307Z,61.11
2022-08-26T19:59:33.004Z,61.82
2022-08-26T20:02:01.945Z,61.66
2022-08-26T20:04:33.613Z,61.19
2022-08-26T20:07:02.831Z,60.80
2022-08-26T20:09:34.213Z,61.83
2022-08-26T20:12:05.207Z,63.41
2022-08-26T20:14:35.131Z,64.10
2022-08-26T20:17:05.473Z,64.08
2022-08-26T20:19:52.241Z,64.43
2022-08-26T20:22:21.294Z,64.40
2022-08-26T20:24:49.463Z,63.83
2022-08-26T20:27:16.947Z,64.42
2022-08-26T20:29:44.670Z,63.84
2022-08-26T20:32:12.634Z,64.34
2022-08-26T20:34:40.322Z,63.98
2022-08-26T20:37:08.532Z,64.91
2022-08-26T20:39:36.511Z,64.36
2022-08-26T20:42:06.654Z,64.39
2022-08-26T20:44:54.483Z,64.88
2022-08-26T20:47:23.229Z,65.59
2022-08-26T20:49:52.523Z,66.31
2022-08-26T20:52:20.897Z,66.67
2022-08-26T20:54:48.375Z,67.59
2022-08-26T20:57:16.127Z,67.62
2022-08-26T20:59:43.772Z,67.75
2022-08-26T21:02:11.318Z,67.99
2022-08-26T21:04:39.111Z,66.91
2022-08-26T21:07:06.733Z,66.32
2022-08-26T21:09:34.211Z,65.08
2022-08-26T21:12:02.572Z,66.08
2022-08-26T21:14:30.096Z,66.65
2022-08-26T21:16:58.544Z,66.76
2022-08-26T21:19:26.733Z,67.75
2022-08-26T21:21:54.303Z,67.51
2022-08-26T21:24:22.073Z,67.18
2022-08-26T21:26:49.907Z,67.37
2022-08-26T21:29:17.489Z,66.98
2022-08-26T21:31:46.759Z,67.82
2022-08-26T21:34:18.563Z,67.66
2022-08-26T21:36:47.969Z,68.66
2022-08-26T21:39:16.539Z,69.46
2022-08-26T21:41:46.076Z,69.01
2022-08-26T21:44:16.078Z,68.72
2022-08-26T21:46:45.935Z,68.85
2022-08-26T21:49:18.635Z,69.03
2022-08-26T21:51:48.941Z,68.45
2022-08-26T21:54:18.186Z,67.67
2022-08-26T21:56:47.358Z,67.69
2022-08-26T21:59:18.699Z,68.50
2022-08-26T22:01:47.115Z,68.02
2022-08-26T22:04:15.038Z,68.70
2022-08-26T22:06:46.990Z,68.93
2022-08-26T22:09:19.524Z,69.52
2022-08-26T22:11:47.769Z,69.52
2022-08-26T22:14:17.579Z,70.23
2022-08-26T22:16:50.162Z,69.42
2022-08-26T22:19:21.204Z,69.99
2022-08-26T22:21:54.484Z,69.30
2022-08-26T22:24:25.337Z,70.18
2022-08-26T22:26:54.105Z,69.98
2022-08-26T22:29:22.742Z,70.01
2022-08-26T22:31:50.630Z,69.08
2022-08-26T22:34:21.101Z,69.71
2022-08-26T22:36:50.419Z,69.95
2022-08-26T22:39:23.522Z,70.50
2022-08-26T22:41:53.735Z,70.05
2022-08-26T22:44:22.301Z,69.34
2022-08-26T22:46:54.212Z,69.82
2022-08-26T22:49:22.901Z,70.42
2022-08-26T22:51:51.203Z,70.05
2022-08-26T22:54:19.407Z,69.10
2022-08-26T22:56:47.274Z,69.26
2022-08-26T22:59:16.227Z,68.92
2022-08-26T23:01:44.745Z,68.82
2022-08-26T23:04:12.671Z,67.79
2022-08-26T23:06:47.751Z,69.12
2022-08-26T23:09:18.704Z,66.84
2022-08-26T23:11:49.422Z,67.11
2022-08-26T23:14:18.796Z,65.57
2022-08-26T23:16:47.644Z,65.53
2022-08-26T23:19:16.687Z,65.87
2022-08-26T23:21:44.753Z,66.12
2022-08-26T23:24:12.547Z,65.45
2022-08-26T23:26:41.661Z,66.10
2022-08-26T23:29:13.457Z,65.84
2022-08-26T23:31:42.188Z,66.11
2022-08-26T23:34:29.390Z,66.25
2022-08-26T23:36:59.070Z,66.90
2022-08-26T23:39:27.760Z,67.10
2022-08-26T23:41:56.861Z,67.92
2022-08-26T23:44:26.566Z,67.45
2022-08-26T23:46:54.921Z,67.82
2022-08-26T23:49:22.577Z,67.34
2022-08-26T23:52:09.205Z,67.31
2022-08-26T23:54:38.069Z,67.95
2022-08-26T23:57:07.357Z,67.90
2022-08-26T23:59:36.421Z,68.03
